Accueil
METAR-TAF:

METAR-TAF

Aéroports :

Schwäbisch Hall, Allemagne

latitude: 49-07-06N, longitude: 9-47-02E, altitude: 398 m

Observation

Le bulletin a été fait il y a 16 minutes, à 07:50 UTC
Vent 8 kt de est
Température 0°C
Humidité 100%
Pression 1013 hPa
Visibilité: 7000 m
Ciel couvert à une hauteur de 600 ft

METAR: EDTY 210750Z 09008KT 7000 OVC006 M00/M00 Q1013

Heure: 09:06 (08:06 UTC)

Prévision

Le bulletin a été fait il y a 3 heures et 6 minutes, à 05:00 UTC
Prévision valable du 21 à 06 UTC au 21 à 15 UTC
Vent 10 kt de est/nord-est
Visibilité: 7000 m
Ciel couvert à une hauteur de 600 ft
Evoluant progressivement
du 21 à 07 UTC au 21 à 11 UTC
Ciel couvert à une hauteur de 1200 ft
Temporairement
du 21 à 12 UTC au 21 à 15 UTC
Nuages fragmentés à une hauteur de 1500 ft

TAF: EDTY 210500Z 2106/2115 07010KT 7000 OVC006 BECMG 2107/2111 OVC012 TEMPO 2112/2115 BKN015

Observations et prévisions météorologiques de plus de 4000 aéroports (messages METAR et TAF).

Les stations disponibles sont représentées par des disques jaunes et rouges sur la carte.

Passer la souris dessus pour voir le nom de la station.

Cliquer dessus pour voir les observations et prévisions météorologiques.

Pour changer de carte: cliquez sur les boutons verts avec une croix noire pour zoomer, sur le bouton vert avec un tiret pour effectuer un zoom arrière, ou sur les flèches vertes pour les cartes adjacentes.


METAR-TAF: